createdAt,value
2018-06-14T00:03:30.842Z,10.10
2018-06-14T00:08:32.998Z,8.80
2018-06-14T00:13:35.167Z,13.00
2018-06-14T00:18:37.346Z,8.73
2018-06-14T00:23:39.538Z,10.53
2018-06-14T00:28:41.731Z,10.60
2018-06-14T00:33:43.882Z,9.13
2018-06-14T00:38:46.074Z,11.17
2018-06-14T00:43:48.230Z,14.20
2018-06-14T00:48:50.374Z,9.50
2018-06-14T00:53:52.538Z,9.70
2018-06-14T00:58:54.850Z,13.03
2018-06-14T01:03:56.999Z,13.80
2018-06-14T01:08:59.198Z,10.90
2018-06-14T01:14:01.358Z,12.83
2018-06-14T01:19:03.626Z,11.07
2018-06-14T01:24:06.050Z,12.73
2018-06-14T01:29:08.217Z,12.63
2018-06-14T01:34:10.371Z,17.87
2018-06-14T01:39:12.509Z,12.60
2018-06-14T01:44:14.638Z,10.97
2018-06-14T01:49:16.814Z,11.27
2018-06-14T01:54:18.998Z,12.37
2018-06-14T01:59:21.170Z,15.93
2018-06-14T02:04:23.326Z,11.40
2018-06-14T02:09:25.468Z,10.50
2018-06-14T02:14:27.631Z,12.63
2018-06-14T02:19:29.798Z,11.53
2018-06-14T02:24:31.945Z,11.33
2018-06-14T02:29:34.115Z,11.80
2018-06-14T02:34:36.301Z,10.87
2018-06-14T02:39:38.539Z,13.23
2018-06-14T02:44:40.767Z,14.57
2018-06-14T02:49:44.374Z,11.97
2018-06-14T02:54:46.551Z,15.00
2018-06-14T02:59:48.750Z,14.17
2018-06-14T03:04:50.990Z,11.77
2018-06-14T03:09:53.174Z,19.70
2018-06-14T03:14:55.381Z,12.40
2018-06-14T03:19:57.561Z,13.27
2018-06-14T03:24:59.749Z,13.17
2018-06-14T03:30:01.962Z,11.80
2018-06-14T03:35:04.123Z,14.87
2018-06-14T03:40:06.276Z,15.57
2018-06-14T03:45:08.448Z,13.43
2018-06-14T03:50:10.629Z,12.10
2018-06-14T03:55:12.829Z,13.97
2018-06-14T04:00:15.014Z,13.77
2018-06-14T04:05:17.193Z,16.03
2018-06-14T04:10:19.568Z,15.43
2018-06-14T04:15:21.661Z,14.30
2018-06-14T04:20:23.807Z,13.70
2018-06-14T04:25:25.938Z,18.43
2018-06-14T04:30:28.071Z,13.70
2018-06-14T04:35:30.284Z,12.77
2018-06-14T04:40:32.446Z,16.17
2018-06-14T04:45:34.694Z,17.60
2018-06-14T04:50:37.519Z,16.17
2018-06-14T04:55:39.703Z,20.67
2018-06-14T05:00:42.717Z,16.80
2018-06-14T05:05:45.107Z,15.30
2018-06-14T05:10:47.294Z,16.83
2018-06-14T05:15:50.810Z,15.90
2018-06-14T05:20:53.306Z,15.60
2018-06-14T05:25:55.495Z,23.50
2018-06-14T05:30:57.668Z,24.73
2018-06-14T05:35:59.822Z,19.07
2018-06-14T05:41:02.012Z,19.83
2018-06-14T05:46:04.187Z,18.20
2018-06-14T05:51:06.350Z,20.07
2018-06-14T05:56:08.531Z,18.63
2018-06-14T06:01:10.739Z,19.97
2018-06-14T06:06:13.027Z,17.63
2018-06-14T06:11:15.458Z,17.37
2018-06-14T06:16:17.594Z,18.37
2018-06-14T06:21:19.755Z,16.47
2018-06-14T06:26:21.982Z,17.30
2018-06-14T06:31:24.114Z,22.03
2018-06-14T06:36:26.345Z,15.80
2018-06-14T06:41:28.574Z,21.73
2018-06-14T06:46:30.942Z,15.40
2018-06-14T06:51:33.098Z,15.17
2018-06-14T06:56:35.270Z,17.70
2018-06-14T07:01:37.418Z,13.13
2018-06-14T07:06:39.623Z,19.30
2018-06-14T07:11:41.814Z,14.73
2018-06-14T07:16:43.997Z,17.93
2018-06-14T07:21:46.348Z,13.17
2018-06-14T07:26:48.486Z,18.63
2018-06-14T07:31:50.750Z,19.10
2018-06-14T07:36:52.922Z,14.70
2018-06-14T07:41:55.097Z,16.27
2018-06-14T07:46:57.254Z,15.00
2018-06-14T07:51:59.406Z,13.77
2018-06-14T07:57:01.587Z,16.57
2018-06-14T08:02:03.770Z,15.00
2018-06-14T08:07:05.952Z,15.43
2018-06-14T08:12:08.139Z,21.87
2018-06-14T08:17:10.349Z,19.30
2018-06-14T08:22:12.554Z,18.33
2018-06-14T08:27:14.738Z,16.23
2018-06-14T08:32:16.901Z,15.00
2018-06-14T08:37:19.056Z,25.83
2018-06-14T08:42:21.190Z,15.10
2018-06-14T08:47:23.339Z,12.97
2018-06-14T08:52:25.506Z,15.37
2018-06-14T08:57:27.661Z,14.33
2018-06-14T09:02:29.813Z,9.47
2018-06-14T09:07:31.953Z,12.33
2018-06-14T09:12:34.204Z,7.80
2018-06-14T09:17:36.342Z,12.97
2018-06-14T09:22:38.501Z,10.10
2018-06-14T09:27:40.658Z,11.33
2018-06-14T09:32:42.805Z,8.33
2018-06-14T09:37:44.986Z,7.77
2018-06-14T09:42:47.181Z,8.90
2018-06-14T09:47:49.393Z,10.40
2018-06-14T09:52:51.706Z,9.00
2018-06-14T09:57:53.881Z,11.40
2018-06-14T10:02:56.060Z,11.70
2018-06-14T10:07:58.405Z,13.10
2018-06-14T10:13:00.593Z,9.00
2018-06-14T10:18:02.869Z,13.70
2018-06-14T10:23:05.065Z,11.40
2018-06-14T10:28:07.226Z,10.37
2018-06-14T10:33:09.424Z,9.83
2018-06-14T10:38:11.606Z,11.03
2018-06-14T10:43:13.801Z,10.73
2018-06-14T10:48:15.986Z,12.80
2018-06-14T10:53:18.346Z,11.37
2018-06-14T10:58:20.526Z,14.47
2018-06-14T11:03:22.723Z,9.60
2018-06-14T11:08:25.452Z,9.80
2018-06-14T11:13:28.100Z,9.30
2018-06-14T11:18:30.384Z,14.13
2018-06-14T11:23:32.686Z,12.60
2018-06-14T11:28:34.838Z,15.90
2018-06-14T11:33:37.056Z,10.93
2018-06-14T11:38:39.215Z,10.17
2018-06-14T11:43:41.390Z,11.63
2018-06-14T11:48:43.558Z,17.23
2018-06-14T11:53:45.727Z,13.70
2018-06-14T11:58:47.908Z,21.53
2018-06-14T12:03:50.079Z,15.47
2018-06-14T12:08:52.229Z,15.97
2018-06-14T12:13:54.422Z,19.73
2018-06-14T12:18:56.632Z,13.50
2018-06-14T12:23:58.839Z,13.87
2018-06-14T12:29:01.002Z,15.83
2018-06-14T12:34:03.318Z,16.73
2018-06-14T12:39:07.018Z,15.37
2018-06-14T12:44:09.432Z,15.73
2018-06-14T12:49:11.627Z,14.17
2018-06-14T12:54:13.822Z,20.73
2018-06-14T12:59:16.082Z,20.73
2018-06-14T13:04:18.253Z,17.10
2018-06-14T13:09:20.422Z,18.90
2018-06-14T13:14:22.610Z,13.87
2018-06-14T13:19:24.799Z,14.50
2018-06-14T13:24:32.858Z,15.33
2018-06-14T13:29:35.089Z,11.37
2018-06-14T13:34:37.854Z,17.17
2018-06-14T13:39:40.048Z,19.60
2018-06-14T13:44:42.214Z,22.40
2018-06-14T13:49:44.464Z,16.00
2018-06-14T13:54:46.651Z,13.00
2018-06-14T13:59:48.977Z,16.27
2018-06-14T14:04:51.194Z,15.13
2018-06-14T14:09:53.921Z,16.80
2018-06-14T14:14:56.327Z,12.57
2018-06-14T14:19:58.510Z,14.60
2018-06-14T14:25:00.694Z,15.03
2018-06-14T14:30:02.968Z,11.93
2018-06-14T14:35:05.147Z,15.30
2018-06-14T14:40:07.326Z,11.40
2018-06-14T14:45:09.477Z,14.03
2018-06-14T14:50:11.669Z,12.70
2018-06-14T14:55:14.026Z,11.00
2018-06-14T15:00:16.177Z,10.40
2018-06-14T15:05:18.310Z,10.03
2018-06-14T15:10:20.470Z,14.27
2018-06-14T15:15:22.616Z,11.97
2018-06-14T15:20:24.853Z,11.70
2018-06-14T15:25:27.005Z,10.30
2018-06-14T15:30:29.186Z,10.10
2018-06-14T15:35:31.346Z,9.97
2018-06-14T15:40:33.493Z,9.70
2018-06-14T15:45:35.682Z,9.13
2018-06-14T15:50:37.841Z,11.13
2018-06-14T15:56:10.903Z,10.73
2018-06-14T16:01:13.095Z,10.47
2018-06-14T16:06:15.323Z,10.00
2018-06-14T16:11:17.474Z,10.60
2018-06-14T16:16:19.626Z,8.07
2018-06-14T16:21:21.762Z,10.67
2018-06-14T16:26:24.047Z,9.23
2018-06-14T16:31:26.198Z,9.70
2018-06-14T16:36:28.366Z,8.50
2018-06-14T16:41:30.505Z,8.47
2018-06-14T16:46:32.729Z,11.00
2018-06-14T16:51:34.946Z,13.97
2018-06-14T16:56:37.104Z,10.30
2018-06-14T17:01:39.262Z,9.03
2018-06-14T17:06:41.423Z,8.10
2018-06-14T17:11:43.613Z,9.40
2018-06-14T17:16:45.783Z,9.43
2018-06-14T17:21:47.929Z,11.87
2018-06-14T17:26:50.074Z,11.40
2018-06-14T17:31:52.228Z,8.80
2018-06-14T17:36:54.450Z,9.63
2018-06-14T17:41:56.626Z,9.00
2018-06-14T17:46:58.774Z,12.07
2018-06-14T17:52:00.939Z,9.53
2018-06-14T17:57:03.185Z,9.30
2018-06-14T18:02:05.357Z,7.53
2018-06-14T18:07:07.554Z,13.37
2018-06-14T18:12:09.786Z,10.07
2018-06-14T18:17:12.007Z,10.40
2018-06-14T18:22:14.135Z,7.50
2018-06-14T18:27:16.350Z,11.17
2018-06-14T18:32:18.547Z,11.53
2018-06-14T18:37:20.742Z,10.43
2018-06-14T18:42:23.081Z,11.80
2018-06-14T18:47:26.092Z,12.30
2018-06-14T18:52:28.318Z,14.50
2018-06-14T18:57:30.563Z,14.43
2018-06-14T19:02:32.726Z,8.93
2018-06-14T19:07:34.908Z,10.70
2018-06-14T19:12:37.237Z,10.43
2018-06-14T19:17:39.673Z,13.93
2018-06-14T19:22:41.926Z,10.33
2018-06-14T19:27:44.089Z,13.40
2018-06-14T19:32:46.267Z,12.43
2018-06-14T19:37:48.415Z,11.23
2018-06-14T19:42:50.628Z,10.83
2018-06-14T19:47:52.801Z,12.10
2018-06-14T19:52:54.999Z,10.30
2018-06-14T19:57:57.229Z,12.13
2018-06-14T20:02:59.510Z,13.00
2018-06-14T20:08:02.303Z,11.67
2018-06-14T20:13:04.669Z,16.30
2018-06-14T20:18:06.849Z,11.00
2018-06-14T20:23:09.218Z,12.53
2018-06-14T20:28:11.575Z,12.20
2018-06-14T20:33:14.014Z,13.50
2018-06-14T20:38:16.209Z,14.00
2018-06-14T20:43:18.403Z,16.57
2018-06-14T20:48:20.551Z,34.57
2018-06-14T20:53:22.838Z,17.20
2018-06-14T20:58:25.022Z,15.87
2018-06-14T21:03:27.189Z,17.53
2018-06-14T21:08:29.392Z,17.30
2018-06-14T21:13:31.797Z,16.23
2018-06-14T21:18:34.090Z,15.50
2018-06-14T21:23:36.253Z,20.03
2018-06-14T21:28:38.441Z,17.83
2018-06-14T21:33:40.604Z,12.57
2018-06-14T21:38:42.770Z,11.13
2018-06-14T21:43:44.959Z,11.10
2018-06-14T21:48:47.149Z,12.43
2018-06-14T21:53:49.313Z,7.63
2018-06-14T21:58:51.474Z,15.90
2018-06-14T22:03:58.098Z,6.43
2018-06-14T22:09:00.446Z,5.93
2018-06-14T22:14:02.626Z,5.20
2018-06-14T22:19:05.026Z,6.40
2018-06-14T22:24:07.185Z,6.80
2018-06-14T22:29:09.333Z,6.17
2018-06-14T22:35:21.814Z,8.37
2018-06-14T22:40:24.103Z,7.00
2018-06-14T22:45:26.290Z,6.73
2018-06-14T22:50:40.054Z,11.30
2018-06-14T22:55:42.257Z,9.53
2018-06-14T23:01:50.568Z,6.00
2018-06-14T23:06:52.786Z,6.87
2018-06-14T23:11:54.930Z,10.07
2018-06-14T23:16:57.094Z,7.13
2018-06-14T23:21:59.274Z,7.53
2018-06-14T23:27:01.456Z,7.50
2018-06-14T23:32:03.645Z,8.70
2018-06-14T23:37:06.046Z,7.80
2018-06-14T23:42:08.202Z,8.20
2018-06-14T23:47:10.434Z,6.73
2018-06-14T23:52:12.709Z,12.63
2018-06-14T23:57:15.026Z,8.90
